Time;durP1;ratioP1;P1;durP2;ratioP2;P2;SDS_P1;SDS_P2;PMS_P1;PMS_P2;Temp;Humidity;BMP_temperature;BMP_pressure;BME280_temperature;BME280_humidity;BME280_pressure;Samples;Min_cycle;Max_cycle;Signal;HPM_P1;HPM_P2
2022/10/02 00:00:00;;;;;;;7.80;2.22;;;11.40;91.40;;;;;;5052189;28;20025;-49
2022/10/02 00:02:43;;;;;;;6.40;2.28;;;11.40;91.40;;;;;;5060748;28;20482;-50
2022/10/02 00:05:29;;;;;;;7.63;1.98;;;11.40;91.30;;;;;;5072234;28;20047;-53
2022/10/02 00:08:16;;;;;;;9.93;1.75;;;11.50;91.40;;;;;;5071809;28;20048;-59
2022/10/02 00:11:06;;;;;;;13.40;2.47;;;11.50;91.50;;;;;;5072587;28;20070;-58
2022/10/02 00:13:50;;;;;;;;;;;11.60;91.50;;;;;;5071695;28;20537;-53
2022/10/02 00:16:21;;;;;;;9.82;2.13;;;11.60;91.50;;;;;;5068395;28;19920;-55
2022/10/02 00:18:49;;;;;;;5.97;2.05;;;11.60;91.50;;;;;;5052213;28;20036;-55
2022/10/02 00:21:33;;;;;;;10.23;1.80;;;11.60;91.50;;;;;;5052001;28;20104;-57
2022/10/02 00:24:16;;;;;;;11.52;2.10;;;11.60;91.40;;;;;;5051944;28;20032;-53
2022/10/02 00:27:23;;;;;;;6.13;1.75;;;11.60;91.40;;;;;;5052027;28;20355;-56
2022/10/02 00:29:53;;;;;;;5.97;1.38;;;11.70;91.40;;;;;;5018781;28;20102;-56
2022/10/02 00:32:38;;;;;;;7.70;1.83;;;11.70;91.40;;;;;;5052141;28;20065;-54
2022/10/02 00:35:26;;;;;;;6.43;1.45;;;11.60;91.30;;;;;;5050860;28;20086;-56
2022/10/02 00:37:57;;;;;;;6.90;1.73;;;11.60;91.30;;;;;;5051796;28;20032;-56
2022/10/02 00:40:56;;;;;;;9.82;2.00;;;11.50;91.40;;;;;;5053921;28;20433;-51
2022/10/02 00:43:47;;;;;;;5.40;2.00;;;11.60;91.50;;;;;;5056480;28;20169;-56
2022/10/02 00:46:40;;;;;;;7.78;1.90;;;11.60;91.50;;;;;;5063678;28;20025;-56
2022/10/02 00:49:33;;;;;;;9.60;1.98;;;11.50;91.40;;;;;;5059898;28;20037;-56
2022/10/02 00:52:24;;;;;;;9.00;1.58;;;11.50;91.30;;;;;;5065308;28;20044;-54
2022/10/02 00:55:23;;;;;;;7.13;1.73;;;11.40;91.40;;;;;;5063468;28;20099;-55
2022/10/02 00:58:13;;;;;;;5.55;1.52;;;11.40;91.40;;;;;;5070703;28;20377;-53
2022/10/02 01:00:45;;;;;;;4.30;1.80;;;11.40;91.30;;;;;;5071388;28;20025;-55
2022/10/02 01:03:29;;;;;;;13.63;2.28;;;11.30;91.40;;;;;;5050740;28;20040;-54
2022/10/02 01:06:02;;;;;;;6.53;2.13;;;11.20;91.40;;;;;;5070347;28;20044;-54
2022/10/02 01:08:30;;;;;;;8.07;1.95;;;11.20;91.50;;;;;;5070290;28;20037;-54
2022/10/02 01:10:57;;;;;;;5.55;1.40;;;11.20;91.60;;;;;;5055398;28;20043;-54
2022/10/02 01:13:24;;;;;;;5.82;1.38;;;11.20;91.60;;;;;;5058729;28;20082;-56
2022/10/02 01:15:55;;;;;;;5.63;1.30;;;11.20;91.50;;;;;;5055960;28;20534;-53
2022/10/02 01:18:21;;;;;;;5.93;1.48;;;11.20;91.60;;;;;;5043003;28;20060;-55
2022/10/02 01:20:58;;;;;;;6.68;1.67;;;11.20;91.60;;;;;;5060246;28;20071;-56
2022/10/02 01:24:03;;;;;;;4.07;1.20;;;11.20;91.70;;;;;;5044201;28;20065;-56
2022/10/02 01:26:31;;;;;;;4.43;1.23;;;11.20;91.80;;;;;;5058450;28;20108;-57
2022/10/02 01:28:58;;;;;;;5.45;1.73;;;11.20;91.70;;;;;;5060533;28;20021;-55
2022/10/02 01:31:27;;;;;;;7.75;1.90;;;11.10;91.70;;;;;;5057533;28;20040;-55
2022/10/02 01:33:53;;;;;;;7.03;1.73;;;11.10;91.80;;;;;;5050418;28;20029;-56
2022/10/02 01:36:21;;;;;;;7.78;1.67;;;11.10;91.80;;;;;;5050166;28;20059;-55
2022/10/02 01:38:59;;;;;;;6.25;2.13;;;11.00;91.80;;;;;;5050591;28;20025;-55
2022/10/02 01:41:26;;;;;;;11.82;2.50;;;11.10;92.00;;;;;;5049889;28;20021;-54
2022/10/02 01:43:57;;;;;;;8.10;2.03;;;11.10;92.10;;;;;;5050535;28;20025;-63
2022/10/02 01:46:51;;;;;;;9.02;2.58;;;11.10;92.20;;;;;;5045893;28;20119;-65
2022/10/02 01:49:56;;;;;;;13.13;3.40;;;11.20;92.40;;;;;;5056463;28;20033;-61
2022/10/02 01:52:25;;;;;;;10.25;2.78;;;11.20;92.50;;;;;;5055704;28;20037;-58
2022/10/02 01:55:19;;;;;;;8.43;3.00;;;11.20;92.50;;;;;;5061844;28;20025;-53
2022/10/02 01:57:53;;;;;;;7.32;2.00;;;11.20;92.50;;;;;;5060201;28;20031;-55
2022/10/02 02:00:26;;;;;;;7.90;2.08;;;11.20;92.50;;;;;;5056554;28;20087;-57
2022/10/02 02:03:28;;;;;;;12.80;2.15;;;11.20;92.40;;;;;;5057153;28;20017;-57
2022/10/02 02:06:31;;;;;;;6.65;2.33;;;11.10;92.40;;;;;;5059991;28;20021;-57
2022/10/02 02:09:08;;;;;;;10.65;2.67;;;11.10;92.50;;;;;;5059436;28;20473;-56
2022/10/02 02:11:40;;;;;;;11.93;2.72;;;11.00;92.40;;;;;;5059803;28;20099;-55
2022/10/02 02:14:14;;;;;;;8.05;2.13;;;11.00;92.50;;;;;;5059347;28;20033;-56
2022/10/02 02:17:10;;;;;;;6.60;2.28;;;11.00;92.50;;;;;;5052814;28;20162;-54
2022/10/02 02:19:42;;;;;;;7.97;3.47;;;11.00;92.60;;;;;;5048909;28;20041;-55
2022/10/02 02:22:17;;;;;;;9.38;2.30;;;10.90;92.60;;;;;;5048804;28;20784;-53
2022/10/02 02:25:14;;;;;;;9.93;2.00;;;10.90;92.60;;;;;;5048601;28;20040;-57
2022/10/02 02:27:51;;;;;;;7.78;3.05;;;10.90;92.80;;;;;;5030469;28;20055;-57
2022/10/02 02:30:21;;;;;;;16.67;2.95;;;10.90;92.70;;;;;;5049346;28;20032;-57
2022/10/02 02:33:00;;;;;;;8.73;2.10;;;11.00;92.70;;;;;;5048729;28;20029;-57
2022/10/02 02:35:34;;;;;;;9.65;2.58;;;11.00;92.80;;;;;;5066519;28;20112;-54
2022/10/02 02:38:06;;;;;;;10.48;2.42;;;11.00;92.80;;;;;;5049530;28;20139;-52
2022/10/02 02:40:37;;;;;;;8.27;2.75;;;11.00;92.80;;;;;;5048749;28;20044;-57
2022/10/02 02:43:14;;;;;;;11.02;2.72;;;11.00;92.80;;;;;;5032677;28;20044;-54
2022/10/02 02:45:49;;;;;;;9.05;2.70;;;11.00;92.80;;;;;;5056271;28;20029;-56
2022/10/02 02:48:39;;;;;;;12.85;3.10;;;11.00;92.80;;;;;;5048299;28;20045;-56
2022/10/02 02:51:16;;;;;;;11.10;4.43;;;11.00;92.80;;;;;;5034495;28;20081;-55
2022/10/02 02:54:07;;;;;;;5.40;2.13;;;11.00;92.80;;;;;;5065895;28;20044;-57
2022/10/02 02:56:44;;;;;;;7.38;2.25;;;10.90;92.90;;;;;;5049419;28;20025;-57
2022/10/02 02:59:19;;;;;;;9.88;3.22;;;10.90;92.90;;;;;;5048748;28;20020;-57
2022/10/02 03:01:46;;;;;;;7.53;2.50;;;10.90;93.00;;;;;;5063901;28;20450;-53
2022/10/02 03:04:18;;;;;;;10.75;2.55;;;11.00;93.00;;;;;;5051560;28;20376;-57
2022/10/02 03:06:50;;;;;;;8.38;3.00;;;11.00;93.10;;;;;;5053223;28;20131;-57
2022/10/02 03:09:20;;;;;;;8.52;2.55;;;11.00;93.20;;;;;;5053562;28;20044;-57
2022/10/02 03:11:51;;;;;;;;;;;11.10;93.10;;;;;;5053879;28;20115;-55
2022/10/02 03:14:41;;;;;;;9.20;3.08;;;11.10;93.20;;;;;;5054032;28;20323;-55
2022/10/02 03:17:28;;;;;;;9.25;3.88;;;11.10;93.30;;;;;;5053206;28;20035;-57
2022/10/02 03:20:16;;;;;;;10.82;3.25;;;11.10;93.30;;;;;;5052822;28;20028;-57
2022/10/02 03:22:54;;;;;;;15.30;3.22;;;11.10;93.30;;;;;;5052946;28;20039;-55
2022/10/02 03:25:41;;;;;;;10.35;3.05;;;11.10;93.30;;;;;;5051973;28;20155;-56
2022/10/02 03:28:15;;;;;;;15.10;3.67;;;11.10;93.20;;;;;;5053023;28;20029;-55
2022/10/02 03:30:45;;;;;;;7.53;3.67;;;11.00;93.20;;;;;;5066173;28;20045;-57
2022/10/02 03:33:14;;;;;;;10.68;3.60;;;11.10;93.30;;;;;;5072952;28;20020;-56
2022/10/02 03:35:42;;;;;;;11.45;3.72;;;11.00;93.20;;;;;;5072955;28;20437;-54
2022/10/02 03:38:12;;;;;;;15.85;4.15;;;11.00;93.30;;;;;;5072601;28;20033;-54
2022/10/02 03:40:39;;;;;;;10.38;3.50;;;11.00;93.30;;;;;;5072755;28;20037;-57
2022/10/02 03:43:08;;;;;;;9.85;3.20;;;11.00;93.20;;;;;;5072807;28;20039;-57
2022/10/02 03:45:35;;;;;;;13.15;4.03;;;10.90;93.30;;;;;;5055400;28;20035;-56
2022/10/02 03:48:00;;;;;;;16.92;4.90;;;10.90;93.30;;;;;;5052337;28;20485;-56
2022/10/02 03:50:29;;;;;;;13.48;3.92;;;10.90;93.30;;;;;;5051796;28;20040;-57
2022/10/02 03:52:57;;;;;;;17.07;4.33;;;10.90;93.30;;;;;;5052209;28;20104;-57
2022/10/02 03:55:38;;;;;;;11.35;4.03;;;10.90;93.40;;;;;;5052021;28;20108;-57
2022/10/02 03:58:18;;;;;;;8.80;3.78;;;10.90;93.40;;;;;;5051104;28;20036;-54
2022/10/02 04:01:15;;;;;;;13.88;3.83;;;10.90;93.40;;;;;;5054604;28;20035;-55
2022/10/02 04:04:16;;;;;;;13.25;3.83;;;10.90;93.50;;;;;;5052366;28;20059;-56
2022/10/02 04:06:49;;;;;;;15.80;4.18;;;11.00;93.50;;;;;;5051864;28;20406;-56
2022/10/02 04:09:38;;;;;;;13.98;3.90;;;11.00;93.60;;;;;;5052403;28;20016;-57
2022/10/02 04:12:38;;;;;;;12.57;4.87;;;11.10;93.70;;;;;;5051246;28;20036;-55
2022/10/02 04:15:15;;;;;;;18.13;4.40;;;11.20;93.70;;;;;;5055103;28;20276;-55
2022/10/02 04:18:01;;;;;;;16.95;4.50;;;11.20;93.80;;;;;;5068732;28;20029;-60
2022/10/02 04:20:53;;;;;;;16.95;4.63;;;11.30;93.90;;;;;;5071841;28;20037;-68
2022/10/02 04:23:21;;;;;;;9.90;3.38;;;11.30;93.70;;;;;;5064950;28;20063;-67
2022/10/02 04:25:51;;;;;;;8.95;2.67;;;11.20;93.60;;;;;;5071801;28;20070;-67
2022/10/02 04:28:25;;;;;;;12.23;2.75;;;11.20;93.50;;;;;;5064919;28;20430;-67
2022/10/02 04:30:53;;;;;;;7.20;2.00;;;11.10;93.60;;;;;;5072117;28;20086;-67
2022/10/02 04:33:21;;;;;;;10.70;2.10;;;11.10;93.60;;;;;;5070961;28;20544;-66
2022/10/02 04:36:17;;;;;;;8.65;1.90;;;11.10;93.50;;;;;;5071940;28;20372;-63
2022/10/02 04:38:54;;;;;;;6.60;3.03;;;11.10;93.50;;;;;;5070841;28;20016;-61
2022/10/02 04:41:48;;;;;;;8.68;1.70;;;11.10;93.50;;;;;;5070892;28;20422;-59
2022/10/02 04:44:35;;;;;;;5.22;1.77;;;11.10;93.50;;;;;;5055804;28;20068;-58
2022/10/02 04:47:28;;;;;;;11.90;2.25;;;11.10;93.50;;;;;;5051498;28;20060;-57
2022/10/02 04:50:21;;;;;;;4.68;1.40;;;11.10;93.50;;;;;;5048587;28;20033;-56
2022/10/02 04:53:22;;;;;;;7.43;2.08;;;11.10;93.50;;;;;;5051189;28;20124;-57
2022/10/02 04:56:03;;;;;;;12.15;2.70;;;11.30;93.70;;;;;;5050336;28;20029;-59
2022/10/02 04:58:40;;;;;;;10.18;2.90;;;11.30;93.70;;;;;;5052005;28;20454;-59
2022/10/02 05:01:36;;;;;;;16.73;3.17;;;11.40;93.80;;;;;;5051369;28;20095;-59
2022/10/02 05:04:26;;;;;;;7.75;2.30;;;11.40;93.80;;;;;;5056004;28;20021;-57
2022/10/02 05:07:10;;;;;;;;;;;11.40;93.80;;;;;;5070358;28;20043;-57
2022/10/02 05:10:00;;;;;;;9.20;1.92;;;11.40;93.80;;;;;;5071197;28;19919;-56
2022/10/02 05:12:44;;;;;;;;;;;11.40;93.70;;;;;;5068083;28;20056;-55
2022/10/02 05:15:19;;;;;;;7.90;2.90;;;11.40;93.70;;;;;;5050783;28;19905;-54
2022/10/02 05:18:06;;;;;;;9.30;2.38;;;11.40;93.70;;;;;;5050103;28;20038;-55
2022/10/02 05:20:34;;;;;;;10.40;1.98;;;11.30;93.70;;;;;;5050205;28;20033;-54
2022/10/02 05:23:46;;;;;;;7.35;1.90;;;11.30;93.70;;;;;;5050869;28;20028;-55
2022/10/02 05:26:36;;;;;;;8.82;1.90;;;11.30;93.70;;;;;;5016561;28;20049;-57
2022/10/02 05:29:22;;;;;;;11.05;2.80;;;11.30;93.70;;;;;;5059859;28;20048;-57
2022/10/02 05:32:39;;;;;;;6.03;2.15;;;11.30;93.70;;;;;;5050874;28;20465;-55
2022/10/02 05:35:48;;;;;;;7.78;2.38;;;11.20;93.60;;;;;;4972970;28;20057;-53
2022/10/02 05:38:42;;;;;;;5.78;2.25;;;11.20;93.60;;;;;;4989670;28;20337;-57
2022/10/02 05:41:32;;;;;;;8.27;2.35;;;11.20;93.50;;;;;;4997596;28;20069;-54
2022/10/02 05:44:17;;;;;;;;;;;11.20;93.50;;;;;;4999194;28;20425;-51
2022/10/02 05:47:09;;;;;;;7.78;2.33;;;11.10;93.50;;;;;;4982494;28;19956;-50
2022/10/02 05:49:42;;;;;;;10.35;2.78;;;11.10;93.50;;;;;;4999065;28;20108;-54
2022/10/02 05:52:22;;;;;;;6.30;1.98;;;11.10;93.60;;;;;;4983357;28;20026;-52
2022/10/02 05:55:03;;;;;;;9.75;3.08;;;11.20;93.60;;;;;;4998733;28;20375;-52
2022/10/02 05:57:56;;;;;;;11.52;4.57;;;11.20;93.60;;;;;;4995687;28;20532;-55
2022/10/02 06:00:43;;;;;;;12.05;2.60;;;11.30;93.60;;;;;;5002462;28;20620;-54
2022/10/02 06:03:34;;;;;;;9.75;2.85;;;11.40;93.70;;;;;;4988378;28;20053;-55
2022/10/02 06:06:41;;;;;;;11.63;4.03;;;11.50;93.80;;;;;;4992029;28;20045;-50
2022/10/02 06:09:38;;;;;;;10.68;3.53;;;11.50;93.70;;;;;;5002977;28;20030;-53
2022/10/02 06:12:49;;;;;;;10.90;2.70;;;11.60;93.70;;;;;;5021847;28;20072;-52
2022/10/02 06:15:30;;;;;;;11.30;2.15;;;11.50;93.60;;;;;;5030969;28;20364;-52
2022/10/02 06:18:07;;;;;;;9.40;2.95;;;11.50;93.60;;;;;;5040239;28;20032;-51
2022/10/02 06:20:44;;;;;;;9.02;2.67;;;11.40;93.60;;;;;;5038520;28;20338;-50
2022/10/02 06:23:15;;;;;;;10.75;3.42;;;11.40;93.50;;;;;;5039609;28;20021;-54
2022/10/02 06:26:03;;;;;;;7.50;2.25;;;11.40;93.60;;;;;;5039392;28;20021;-51
2022/10/02 06:28:53;;;;;;;6.15;2.50;;;11.40;93.60;;;;;;5038978;28;20032;-56
2022/10/02 06:31:56;;;;;;;10.57;2.50;;;11.30;93.50;;;;;;5038099;28;20105;-56
2022/10/02 06:34:27;;;;;;;10.38;2.67;;;11.40;93.60;;;;;;5038873;28;20350;-52
2022/10/02 06:37:05;;;;;;;8.40;2.28;;;11.30;93.60;;;;;;5037296;28;20366;-55
2022/10/02 06:40:19;;;;;;;12.38;2.47;;;11.30;93.60;;;;;;5039421;28;20029;-56
2022/10/02 06:43:00;;;;;;;9.90;2.88;;;11.30;93.70;;;;;;4986396;28;20055;-54
2022/10/02 06:45:51;;;;;;;11.45;2.90;;;11.40;93.70;;;;;;4996617;28;20428;-50
2022/10/02 06:48:24;;;;;;;13.70;3.72;;;11.40;93.80;;;;;;4987088;28;20355;-51
2022/10/02 06:51:18;;;;;;;13.18;3.13;;;11.50;93.80;;;;;;4999095;28;20115;-51
2022/10/02 06:54:18;;;;;;;16.13;4.45;;;11.50;93.90;;;;;;4996916;28;20045;-52
2022/10/02 06:57:20;;;;;;;12.10;3.05;;;11.60;93.90;;;;;;4987937;28;20368;-53
2022/10/02 07:00:10;;;;;;;17.58;3.33;;;11.80;94.00;;;;;;5001889;28;20141;-52
2022/10/02 07:02:58;;;;;;;17.85;3.53;;;12.00;94.00;;;;;;4992194;28;20033;-53
2022/10/02 07:05:45;;;;;;;16.63;3.28;;;12.20;94.10;;;;;;4987021;28;20022;-65
2022/10/02 07:08:19;;;;;;;12.02;2.58;;;12.40;94.00;;;;;;4996142;28;20030;-65
2022/10/02 07:11:03;;;;;;;12.20;3.58;;;12.40;93.80;;;;;;4994520;28;20472;-60
2022/10/02 07:13:59;;;;;;;14.20;3.38;;;12.30;93.60;;;;;;4996707;28;20041;-57
2022/10/02 07:16:37;;;;;;;8.98;2.95;;;12.20;93.60;;;;;;4995502;28;20057;-57
2022/10/02 07:19:32;;;;;;;16.30;2.67;;;12.10;93.50;;;;;;4988675;28;20057;-56
2022/10/02 07:22:28;;;;;;;10.27;3.08;;;12.10;93.50;;;;;;5014904;28;20022;-53
2022/10/02 07:25:32;;;;;;;20.02;3.10;;;12.20;93.60;;;;;;5020380;28;20072;-53
2022/10/02 07:28:41;;;;;;;18.02;3.45;;;12.40;93.70;;;;;;5017973;28;20064;-54
2022/10/02 07:31:27;;;;;;;9.98;3.28;;;12.60;93.80;;;;;;5017093;28;20045;-59
2022/10/02 07:34:26;;;;;;;14.25;3.45;;;12.70;93.80;;;;;;5019567;28;20021;-59
2022/10/02 07:37:07;;;;;;;15.30;3.05;;;12.90;93.70;;;;;;5021374;28;20025;-56
2022/10/02 07:40:01;;;;;;;11.07;2.80;;;13.00;93.70;;;;;;5016619;28;20025;-62
2022/10/02 07:42:53;;;;;;;15.00;3.45;;;13.00;93.60;;;;;;5010533;28;20041;-67
2022/10/02 07:45:44;;;;;;;10.63;2.63;;;13.00;93.40;;;;;;5008308;28;20054;-68
2022/10/02 07:48:19;;;;;;;13.13;3.95;;;12.90;93.30;;;;;;5037039;28;20068;-65
2022/10/02 07:50:59;;;;;;;13.02;2.38;;;12.90;93.30;;;;;;5050955;28;20040;-65
2022/10/02 07:53:40;;;;;;;7.03;2.22;;;12.70;93.00;;;;;;5052144;28;20032;-66
2022/10/02 07:56:18;;;;;;;7.57;2.30;;;12.50;92.60;;;;;;5060010;28;20506;-60
2022/10/02 07:58:51;;;;;;;5.70;1.45;;;12.30;92.30;;;;;;5054138;28;20028;-58
2022/10/02 08:01:33;;;;;;;7.43;1.58;;;12.20;92.10;;;;;;5055491;28;20038;-57
2022/10/02 08:04:29;;;;;;;6.93;1.80;;;12.10;91.90;;;;;;5059385;28;20044;-55
2022/10/02 08:07:04;;;;;;;12.75;2.35;;;12.10;91.90;;;;;;5062106;28;20377;-55
2022/10/02 08:09:42;;;;;;;14.63;2.97;;;12.20;92.30;;;;;;5066297;28;20021;-53
2022/10/02 08:12:48;;;;;;;14.27;2.42;;;12.80;93.10;;;;;;5061882;28;20672;-50
2022/10/02 08:15:18;;;;;;;13.57;2.53;;;13.20;92.30;;;;;;5029203;28;20037;-50
2022/10/02 08:18:14;;;;;;;11.57;2.25;;;13.50;92.10;;;;;;5051968;28;20036;-51
2022/10/02 08:20:43;;;;;;;8.65;1.98;;;13.60;91.30;;;;;;5051412;28;20510;-51
2022/10/02 08:23:24;;;;;;;10.55;2.00;;;13.80;91.20;;;;;;5050586;28;20037;-53
2022/10/02 08:25:52;;;;;;;13.73;2.20;;;13.90;90.80;;;;;;5052441;28;20108;-51
2022/10/02 08:28:36;;;;;;;8.90;2.20;;;13.80;90.30;;;;;;5070076;28;20028;-49
2022/10/02 08:31:09;;;;;;;9.10;2.53;;;13.80;90.50;;;;;;5071852;28;20331;-51
2022/10/02 08:33:37;;;;;;;10.98;2.30;;;13.70;90.70;;;;;;5054118;28;20052;-50
2022/10/02 08:36:19;;;;;;;10.88;2.60;;;13.70;90.60;;;;;;5070191;28;20017;-53
2022/10/02 08:38:56;;;;;;;6.78;1.83;;;13.70;90.90;;;;;;5070815;28;20391;-54
2022/10/02 08:41:43;;;;;;;12.15;2.88;;;13.70;90.90;;;;;;5061806;28;20024;-52
2022/10/02 08:44:56;;;;;;;11.23;2.55;;;13.60;90.90;;;;;;5051688;28;20052;-53
2022/10/02 08:47:40;;;;;;;14.38;2.92;;;13.60;91.00;;;;;;5027962;28;20033;-50
2022/10/02 08:50:31;;;;;;;15.48;2.70;;;13.70;91.30;;;;;;5052221;28;20037;-48
2022/10/02 08:53:22;;;;;;;12.07;2.97;;;13.70;90.70;;;;;;5057984;28;20151;-48
2022/10/02 08:56:21;;;;;;;13.38;3.17;;;13.50;91.00;;;;;;5057971;28;20047;-48
2022/10/02 08:59:03;;;;;;;7.93;2.38;;;13.40;90.90;;;;;;5071137;28;20029;-52
2022/10/02 09:02:09;;;;;;;10.75;2.58;;;13.30;91.20;;;;;;5070967;28;20016;-52
2022/10/02 09:04:58;;;;;;;12.85;3.53;;;13.30;91.60;;;;;;5068044;28;20326;-47
2022/10/02 09:07:57;;;;;;;10.57;2.47;;;13.80;92.10;;;;;;5070974;28;20028;-51
2022/10/02 09:10:50;;;;;;;14.20;2.72;;;14.10;91.50;;;;;;5060487;28;20075;-50
2022/10/02 09:13:39;;;;;;;14.18;2.90;;;14.40;91.80;;;;;;5050979;28;20032;-52
2022/10/02 09:16:20;;;;;;;9.80;2.55;;;14.80;91.30;;;;;;5056393;28;20422;-46
2022/10/02 09:19:07;;;;;;;11.68;3.05;;;15.00;90.10;;;;;;5069804;28;20042;-46
2022/10/02 09:21:45;;;;;;;11.73;3.35;;;15.20;89.60;;;;;;5070627;28;20425;-46
2022/10/02 09:24:45;;;;;;;13.95;3.30;;;15.30;89.00;;;;;;5066458;28;20029;-46
2022/10/02 09:27:45;;;;;;;11.35;2.95;;;15.30;88.00;;;;;;5064248;28;20036;-50
2022/10/02 09:30:35;;;;;;;10.27;2.55;;;15.40;88.50;;;;;;5070203;28;20040;-47
2022/10/02 09:33:26;;;;;;;11.57;2.78;;;15.50;88.00;;;;;;5063620;28;20032;-46
2022/10/02 09:36:29;;;;;;;14.25;4.05;;;15.70;88.20;;;;;;5050544;28;20036;-53
2022/10/02 09:39:20;;;;;;;10.50;2.70;;;15.90;88.10;;;;;;5049903;28;20094;-51
2022/10/02 09:42:17;;;;;;;12.23;2.67;;;16.10;86.60;;;;;;5070350;28;20318;-47
2022/10/02 09:45:22;;;;;;;18.60;3.88;;;16.40;86.10;;;;;;5070438;28;20024;-48
2022/10/02 09:48:19;;;;;;;17.70;3.13;;;16.60;84.70;;;;;;5070120;28;20093;-48
2022/10/02 09:51:23;;;;;;;15.05;3.65;;;16.80;83.40;;;;;;5057377;28;20029;-49
2022/10/02 09:54:31;;;;;;;13.73;3.95;;;16.80;83.40;;;;;;5065506;28;20400;-49
2022/10/02 09:57:34;;;;;;;11.52;3.22;;;16.60;82.00;;;;;;5041436;28;20147;-46
2022/10/02 10:00:18;;;;;;;13.35;3.45;;;16.40;82.90;;;;;;5054715;28;20060;-49
2022/10/02 10:03:21;;;;;;;16.58;3.90;;;16.30;83.50;;;;;;5068411;28;20116;-53
2022/10/02 10:06:24;;;;;;;18.40;4.05;;;16.50;84.40;;;;;;5069113;28;20036;-46
2022/10/02 10:09:39;;;;;;;16.13;3.78;;;16.60;83.90;;;;;;5062079;28;20021;-49
2022/10/02 10:12:20;;;;;;;16.13;4.65;;;16.30;82.90;;;;;;5019783;28;20049;-49
2022/10/02 10:15:22;;;;;;;17.23;3.08;;;15.80;83.80;;;;;;5048540;28;20101;-50
2022/10/02 10:18:25;;;;;;;14.30;3.15;;;15.30;85.40;;;;;;5060162;28;20047;-47
2022/10/02 10:21:28;;;;;;;14.18;3.42;;;15.00;86.30;;;;;;5061573;28;20036;-47
2022/10/02 10:24:39;;;;;;;18.40;3.78;;;14.70;84.00;;;;;;5065380;28;20119;-48
2022/10/02 10:27:42;;;;;;;13.88;4.13;;;14.90;82.80;;;;;;5066229;28;20056;-46
2022/10/02 10:30:22;;;;;;;16.30;2.75;;;14.80;81.50;;;;;;5044147;28;20362;-46
2022/10/02 10:33:25;;;;;;;12.20;2.97;;;14.70;81.40;;;;;;5048579;28;20049;-46
2022/10/02 10:39:52;;;;;;;18.80;3.85;;;14.60;82.00;;;;;;5054264;28;20075;-47
2022/10/02 10:42:50;;;;;;;15.38;3.42;;;15.10;81.70;;;;;;5051927;28;20029;-52
2022/10/02 10:58:51;;;;;;;17.88;3.17;;;16.40;75.70;;;;;;5085772;28;20062;-47
2022/10/02 11:01:35;;;;;;;20.30;3.28;;;16.60;75.90;;;;;;5077141;28;20101;-47
2022/10/02 11:04:35;;;;;;;15.75;3.90;;;16.60;74.90;;;;;;5086399;28;20497;-45
2022/10/02 11:07:18;;;;;;;14.18;2.58;;;16.70;74.70;;;;;;5072404;28;20123;-46
2022/10/02 11:09:55;;;;;;;14.07;3.25;;;16.80;74.10;;;;;;5072129;28;20028;-47
2022/10/02 11:12:40;;;;;;;12.40;4.10;;;16.90;74.50;;;;;;5079536;28;20106;-49
2022/10/02 11:15:37;;;;;;;15.10;4.05;;;16.90;74.70;;;;;;5077741;28;20096;-49
2022/10/02 11:18:39;;;;;;;17.10;3.05;;;17.00;73.90;;;;;;5077216;28;20464;-45
2022/10/02 11:21:27;;;;;;;14.82;4.47;;;17.10;75.20;;;;;;5086580;28;20038;-48
2022/10/02 11:24:14;;;;;;;16.17;3.58;;;17.10;73.90;;;;;;5085900;28;20107;-49
2022/10/02 11:26:49;;;;;;;13.85;3.00;;;17.00;73.40;;;;;;5084834;28;20028;-46
2022/10/02 11:29:49;;;;;;;17.08;3.83;;;17.00;73.60;;;;;;5085421;28;20115;-50
2022/10/02 11:32:35;;;;;;;14.00;3.13;;;17.30;74.50;;;;;;5081405;28;20017;-48
2022/10/02 11:35:19;;;;;;;20.90;3.50;;;17.50;73.70;;;;;;5065466;28;20063;-48
2022/10/02 11:38:13;;;;;;;12.35;3.15;;;17.40;74.30;;;;;;5081345;28;20039;-46
2022/10/02 11:40:53;;;;;;;14.70;4.68;;;17.20;74.00;;;;;;5066179;28;20031;-46
2022/10/02 11:43:46;;;;;;;14.63;3.17;;;16.90;76.90;;;;;;5082893;28;20024;-51
2022/10/02 11:46:20;;;;;;;14.63;3.90;;;16.10;80.80;;;;;;5079228;28;20055;-49
2022/10/02 11:49:25;;;;;;;23.33;4.72;;;15.50;82.20;;;;;;5089223;28;20020;-50
2022/10/02 11:52:16;;;;;;;13.55;3.63;;;15.30;82.50;;;;;;5075170;28;20107;-47
2022/10/02 11:54:54;;;;;;;14.82;3.30;;;15.30;82.10;;;;;;5071509;28;20082;-49
2022/10/02 11:57:34;;;;;;;16.50;4.72;;;15.40;81.40;;;;;;5074631;28;20095;-46
2022/10/02 12:00:30;;;;;;;12.93;2.78;;;15.60;81.50;;;;;;5073587;28;20041;-47
2022/10/02 12:03:35;;;;;;;19.27;4.05;;;15.90;80.30;;;;;;5070706;28;20373;-45
2022/10/02 12:06:15;;;;;;;14.55;3.60;;;16.00;79.40;;;;;;4989639;28;20104;-48
2022/10/02 12:09:00;;;;;;;17.40;4.22;;;16.10;79.10;;;;;;5075708;28;20020;-49
2022/10/02 12:11:38;;;;;;;15.05;3.05;;;16.30;78.60;;;;;;5080490;28;20071;-47
2022/10/02 12:14:21;;;;;;;10.68;2.63;;;16.50;77.90;;;;;;5071708;28;20037;-47
2022/10/02 12:17:06;;;;;;;18.35;3.63;;;16.60;76.50;;;;;;5070306;28;20032;-44
2022/10/02 12:29:31;;;;;;;20.15;4.28;;;16.50;75.00;;;;;;5087925;28;20449;-51
2022/10/02 12:32:29;;;;;;;13.20;4.13;;;16.40;75.10;;;;;;5089391;28;20028;-45
2022/10/02 12:35:24;;;;;;;15.95;3.92;;;16.40;72.90;;;;;;5085734;28;20056;-46
2022/10/02 12:38:24;;;;;;;14.75;3.05;;;16.40;74.80;;;;;;5090710;28;20097;-50
2022/10/02 12:41:08;;;;;;;16.80;4.25;;;16.40;71.20;;;;;;5070341;28;20440;-46
2022/10/02 12:44:01;;;;;;;16.17;3.50;;;16.50;72.20;;;;;;5087452;28;20032;-50
2022/10/02 12:47:06;;;;;;;12.27;3.75;;;16.60;71.30;;;;;;5090763;28;20039;-50
2022/10/02 12:50:09;;;;;;;14.88;3.30;;;16.60;72.60;;;;;;5072316;28;20057;-46
2022/10/02 12:53:13;;;;;;;14.82;2.80;;;16.60;73.50;;;;;;5059914;28;20039;-46
2022/10/02 12:56:17;;;;;;;20.60;3.97;;;16.70;73.90;;;;;;5071359;28;20040;-48
2022/10/02 12:58:48;;;;;;;13.05;3.88;;;16.60;74.10;;;;;;5085857;28;20056;-47
2022/10/02 13:01:32;;;;;;;15.57;4.03;;;16.60;73.10;;;;;;5072248;28;20027;-48
2022/10/02 13:04:28;;;;;;;15.48;3.55;;;16.60;73.30;;;;;;5091106;28;20043;-45
2022/10/02 13:07:17;;;;;;;22.33;3.80;;;16.60;74.10;;;;;;5088452;28;20062;-44
2022/10/02 13:09:57;;;;;;;12.98;3.22;;;16.70;74.40;;;;;;5069638;28;20492;-46
2022/10/02 13:12:58;;;;;;;12.95;3.25;;;16.70;74.10;;;;;;5070959;28;20082;-45
2022/10/02 13:15:45;;;;;;;16.15;3.40;;;16.70;72.80;;;;;;5070557;28;20131;-46
2022/10/02 13:18:42;;;;;;;14.95;3.20;;;16.70;73.60;;;;;;5090196;28;20035;-46
2022/10/02 13:21:36;;;;;;;10.75;2.72;;;16.70;74.80;;;;;;5090088;28;20020;-46
2022/10/02 13:24:32;;;;;;;10.53;2.90;;;16.50;72.90;;;;;;5089727;28;20039;-50
2022/10/02 13:27:24;;;;;;;13.55;3.55;;;16.30;73.40;;;;;;5075871;28;20377;-48
2022/10/02 13:30:01;;;;;;;15.95;3.78;;;16.20;73.40;;;;;;5062248;28;20041;-45
2022/10/02 13:32:51;;;;;;;15.15;3.95;;;16.20;73.80;;;;;;5069831;28;20017;-47
2022/10/02 13:35:26;;;;;;;13.90;2.92;;;16.20;73.50;;;;;;5069572;28;20024;-48
2022/10/02 13:38:25;;;;;;;18.00;4.13;;;16.10;74.00;;;;;;5070066;28;20107;-46
2022/10/02 13:41:05;;;;;;;9.43;2.55;;;16.10;74.40;;;;;;5069241;28;20119;-47
2022/10/02 13:43:50;;;;;;;15.38;3.75;;;15.90;74.40;;;;;;5051598;28;20033;-49
2022/10/02 13:46:30;;;;;;;16.17;3.40;;;15.90;76.10;;;;;;5076088;28;20028;-49
2022/10/02 13:49:16;;;;;;;17.83;4.22;;;15.90;76.30;;;;;;5071099;28;20019;-49
2022/10/02 13:52:02;;;;;;;22.98;4.43;;;15.80;75.90;;;;;;5089459;28;20032;-47
2022/10/02 13:54:52;;;;;;;13.27;3.20;;;15.70;76.00;;;;;;5071324;28;20357;-48
2022/10/02 13:57:48;;;;;;;23.90;3.95;;;15.40;75.70;;;;;;5069304;28;20032;-45
2022/10/02 14:00:41;;;;;;;14.00;3.00;;;15.40;75.60;;;;;;5089045;28;20035;-46
2022/10/02 14:03:26;;;;;;;16.75;3.38;;;15.40;76.30;;;;;;5087265;28;20096;-49
2022/10/02 14:06:14;;;;;;;15.88;3.47;;;15.60;76.10;;;;;;5087879;28;20373;-47
2022/10/02 14:09:10;;;;;;;19.65;3.38;;;15.60;74.90;;;;;;5089447;28;20032;-49
2022/10/02 14:12:05;;;;;;;14.38;3.05;;;15.60;76.00;;;;;;5080017;28;20027;-49
2022/10/02 14:15:08;;;;;;;17.05;3.15;;;15.70;76.20;;;;;;5077061;28;20475;-48
2022/10/02 14:17:57;;;;;;;18.00;4.53;;;15.70;76.70;;;;;;5088756;28;20115;-47
2022/10/02 14:20:38;;;;;;;15.55;3.80;;;15.80;76.60;;;;;;5060758;28;20883;-45
2022/10/02 14:23:30;;;;;;;15.93;5.07;;;15.80;76.10;;;;;;5070527;28;20107;-49
2022/10/02 14:26:11;;;;;;;12.38;2.60;;;15.60;76.50;;;;;;5077165;28;20103;-47
2022/10/02 14:28:52;;;;;;;18.73;3.50;;;15.40;76.70;;;;;;5076561;28;20721;-46
2022/10/02 14:31:49;;;;;;;16.00;4.80;;;15.40;77.70;;;;;;5058740;28;20465;-48
2022/10/02 14:34:33;;;;;;;14.75;3.38;;;15.30;77.70;;;;;;5078035;28;20106;-49
2022/10/02 14:37:28;;;;;;;14.00;2.60;;;15.40;78.10;;;;;;5069773;28;20115;-47
2022/10/02 14:39:58;;;;;;;12.68;3.00;;;15.40;76.80;;;;;;5072146;28;20346;-47
2022/10/02 14:42:49;;;;;;;22.05;5.25;;;15.40;76.20;;;;;;5068595;28;20350;-47